createdAt,value
2023-05-23T00:00:54.105Z,64.48
2023-05-23T00:03:23.002Z,64.75
2023-05-23T00:05:51.529Z,64.75
2023-05-23T00:08:19.787Z,64.72
2023-05-23T00:10:49.162Z,64.98
2023-05-23T00:13:17.580Z,64.73
2023-05-23T00:15:48.978Z,65.00
2023-05-23T00:18:17.402Z,65.13
2023-05-23T00:20:46.926Z,65.09
2023-05-23T00:23:19.581Z,64.80
2023-05-23T00:25:52.471Z,64.87
2023-05-23T00:28:21.360Z,64.77
2023-05-23T00:30:50.117Z,64.72
2023-05-23T00:33:22.604Z,65.01
2023-05-23T00:35:50.482Z,64.87
2023-05-23T00:38:18.494Z,64.74
2023-05-23T00:40:47.033Z,64.57
2023-05-23T00:43:16.186Z,64.56
2023-05-23T00:45:43.985Z,64.62
2023-05-23T00:48:12.811Z,64.57
2023-05-23T00:50:41.263Z,64.60
2023-05-23T00:53:09.127Z,64.35
2023-05-23T00:55:37.548Z,64.57
2023-05-23T00:58:05.603Z,64.44
2023-05-23T01:00:35.809Z,64.27
2023-05-23T01:03:05.635Z,64.44
2023-05-23T01:05:33.474Z,64.13
2023-05-23T01:08:03.261Z,64.32
2023-05-23T01:13:30.134Z,64.38
2023-05-23T01:16:07.253Z,64.16
2023-05-23T01:18:41.934Z,64.12
2023-05-23T01:21:15.090Z,64.47
2023-05-23T01:24:04.037Z,64.25
2023-05-23T01:26:48.292Z,64.42
2023-05-23T01:29:24.269Z,64.26
2023-05-23T01:31:55.699Z,64.18
2023-05-23T01:34:24.562Z,64.34
2023-05-23T01:36:56.300Z,64.28
2023-05-23T01:39:25.426Z,64.26
2023-05-23T01:41:54.705Z,64.45
2023-05-23T01:44:24.125Z,64.40
2023-05-23T01:46:52.529Z,64.35
2023-05-23T01:49:23.670Z,64.36
2023-05-23T01:51:51.526Z,64.55
2023-05-23T01:54:21.224Z,64.42
2023-05-23T01:56:49.487Z,64.52
2023-05-23T01:59:17.327Z,64.30
2023-05-23T02:01:47.302Z,64.34
2023-05-23T02:04:15.761Z,64.58
2023-05-23T02:06:43.590Z,64.47
2023-05-23T02:09:11.792Z,64.34
2023-05-23T02:11:39.549Z,64.11
2023-05-23T02:14:08.284Z,64.22
2023-05-23T02:16:36.989Z,64.19
2023-05-23T02:19:06.451Z,64.09
2023-05-23T02:21:35.485Z,64.27
2023-05-23T02:24:04.028Z,64.00
2023-05-23T02:26:31.842Z,63.88
2023-05-23T02:28:59.604Z,64.01
2023-05-23T02:31:28.292Z,64.10
2023-05-23T02:33:56.198Z,63.91
2023-05-23T02:36:25.351Z,63.89
2023-05-23T02:38:53.722Z,63.88
2023-05-23T02:41:21.532Z,63.62
2023-05-23T02:43:49.301Z,63.81
2023-05-23T02:46:17.561Z,63.75
2023-05-23T02:48:45.664Z,63.67
2023-05-23T02:51:14.181Z,63.99
2023-05-23T02:53:43.813Z,63.98
2023-05-23T02:56:11.730Z,63.87
2023-05-23T02:58:39.998Z,63.91
2023-05-23T03:01:08.752Z,63.70
2023-05-23T03:03:36.684Z,63.54
2023-05-23T03:06:06.266Z,63.83
2023-05-23T03:08:34.536Z,63.76
2023-05-23T03:11:03.741Z,63.92
2023-05-23T03:13:31.651Z,63.80
2023-05-23T03:16:00.061Z,63.89
2023-05-23T03:18:27.875Z,63.89
2023-05-23T03:20:55.598Z,63.78
2023-05-23T03:23:23.890Z,63.55
2023-05-23T03:25:51.669Z,63.71
2023-05-23T03:28:20.757Z,63.41
2023-05-23T03:30:49.062Z,63.66
2023-05-23T03:33:17.043Z,63.61
2023-05-23T03:35:44.781Z,64.24
2023-05-23T03:38:13.091Z,63.92
2023-05-23T03:40:40.824Z,63.93
2023-05-23T03:43:09.537Z,64.44
2023-05-23T03:45:39.420Z,64.44
2023-05-23T03:48:07.367Z,64.59
2023-05-23T03:50:35.148Z,64.73
2023-05-23T03:53:03.444Z,64.46
2023-05-23T03:55:33.058Z,64.14
2023-05-23T03:58:00.959Z,64.42
2023-05-23T04:00:29.182Z,64.07
2023-05-23T04:02:58.397Z,64.39
2023-05-23T04:05:26.285Z,64.53
2023-05-23T04:07:54.547Z,64.63
2023-05-23T04:10:22.284Z,64.68
2023-05-23T04:12:50.019Z,64.85
2023-05-23T04:15:18.209Z,64.52
2023-05-23T04:17:46.023Z,65.20
2023-05-23T04:20:15.171Z,64.72
2023-05-23T04:22:43.674Z,64.60
2023-05-23T04:25:11.608Z,64.88
2023-05-23T04:27:40.623Z,65.10
2023-05-23T04:32:38.986Z,65.73
2023-05-23T04:35:07.550Z,65.66
2023-05-23T04:37:38.198Z,65.54
2023-05-23T04:40:07.216Z,65.18
2023-05-23T04:42:36.077Z,65.13
2023-05-23T04:45:04.609Z,65.08
2023-05-23T04:47:36.978Z,64.59
2023-05-23T04:50:06.063Z,64.50
2023-05-23T04:52:34.394Z,64.47
2023-05-23T04:55:04.201Z,64.43
2023-05-23T04:57:32.874Z,64.03
2023-05-23T05:00:01.189Z,64.23
2023-05-23T05:02:34.023Z,64.07
2023-05-23T05:05:01.829Z,63.98
2023-05-23T05:07:30.363Z,63.78
2023-05-23T05:10:00.875Z,63.61
2023-05-23T05:12:30.411Z,63.77
2023-05-23T05:14:58.189Z,63.59
2023-05-23T05:17:26.239Z,63.37
2023-05-23T05:19:54.036Z,63.69
2023-05-23T05:22:21.817Z,63.52
2023-05-23T05:24:50.095Z,63.70
2023-05-23T05:27:17.915Z,63.76
2023-05-23T05:29:48.124Z,64.09
2023-05-23T05:32:16.938Z,63.87
2023-05-23T05:34:46.430Z,63.72
2023-05-23T05:37:15.533Z,63.73
2023-05-23T05:39:43.915Z,63.90
2023-05-23T05:42:11.659Z,63.94
2023-05-23T05:44:39.413Z,63.55
2023-05-23T05:47:09.062Z,63.58
2023-05-23T05:49:36.646Z,63.51
2023-05-23T05:52:04.502Z,63.41
2023-05-23T05:54:32.288Z,63.51
2023-05-23T05:57:00.123Z,63.59
2023-05-23T05:59:28.486Z,63.60
2023-05-23T06:01:57.701Z,63.57
2023-05-23T06:04:26.869Z,63.09
2023-05-23T06:06:54.660Z,63.22
2023-05-23T06:09:22.628Z,63.36
2023-05-23T06:11:50.406Z,63.23
2023-05-23T06:14:18.277Z,63.19
2023-05-23T06:16:46.800Z,63.41
2023-05-23T06:19:14.727Z,62.96
2023-05-23T06:21:43.853Z,63.03
2023-05-23T06:24:11.963Z,63.10
2023-05-23T06:26:39.706Z,63.02
2023-05-23T06:29:07.457Z,63.08
2023-05-23T06:31:35.710Z,62.94
2023-05-23T06:34:03.573Z,63.23
2023-05-23T06:36:31.907Z,63.54
2023-05-23T06:39:01.210Z,63.69
2023-05-23T06:41:29.037Z,63.56
2023-05-23T06:43:56.799Z,63.64
2023-05-23T06:46:25.518Z,63.94
2023-05-23T06:49:02.727Z,63.12
2023-05-23T06:51:41.512Z,63.33
2023-05-23T06:54:11.534Z,63.34
2023-05-23T06:56:39.312Z,62.94
2023-05-23T06:59:07.130Z,62.77
2023-05-23T07:01:34.958Z,62.77
2023-05-23T07:04:02.806Z,62.76
2023-05-23T07:06:31.519Z,61.96
2023-05-23T07:08:59.364Z,61.68
2023-05-23T07:11:28.584Z,61.05
2023-05-23T07:13:56.396Z,60.56
2023-05-23T07:16:24.296Z,60.30
2023-05-23T07:18:52.510Z,59.57
2023-05-23T07:21:20.467Z,59.13
2023-05-23T07:23:48.225Z,58.79
2023-05-23T07:26:16.154Z,57.58
2023-05-23T07:28:45.623Z,56.82
2023-05-23T07:31:13.513Z,56.43
2023-05-23T07:33:41.564Z,57.24
2023-05-23T07:36:10.030Z,57.79
2023-05-23T07:38:37.821Z,57.66
2023-05-23T07:41:11.563Z,57.77
2023-05-23T07:43:40.288Z,57.31
2023-05-23T07:46:09.543Z,56.98
2023-05-23T07:48:37.619Z,56.48
2023-05-23T07:51:06.043Z,56.10
2023-05-23T07:53:33.871Z,55.69
2023-05-23T07:56:02.684Z,55.30
2023-05-23T07:58:30.499Z,55.55
2023-05-23T08:00:59.578Z,55.13
2023-05-23T08:03:29.079Z,53.71
2023-05-23T08:05:56.851Z,53.33
2023-05-23T08:08:24.667Z,53.90
2023-05-23T08:10:52.817Z,54.06
2023-05-23T08:13:20.630Z,53.88
2023-05-23T08:15:48.449Z,53.35
2023-05-23T08:18:16.814Z,54.08
2023-05-23T08:20:46.255Z,53.22
2023-05-23T08:23:14.280Z,52.76
2023-05-23T08:25:42.369Z,53.44
2023-05-23T08:28:10.217Z,53.15
2023-05-23T08:30:38.095Z,53.09
2023-05-23T08:33:07.521Z,52.22
2023-05-23T08:35:36.520Z,52.53
2023-05-23T08:38:09.185Z,51.50
2023-05-23T08:40:38.032Z,52.06
2023-05-23T08:43:06.164Z,52.23
2023-05-23T08:45:34.903Z,52.07
2023-05-23T08:48:04.442Z,51.57
2023-05-23T08:50:32.881Z,50.69
2023-05-23T08:53:01.365Z,49.67
2023-05-23T08:55:31.105Z,50.18
2023-05-23T08:58:00.458Z,50.06
2023-05-23T09:00:29.519Z,49.76
2023-05-23T09:02:58.264Z,50.03
2023-05-23T09:05:27.647Z,49.99
2023-05-23T09:07:57.023Z,50.28
2023-05-23T09:10:24.912Z,49.35
2023-05-23T09:12:54.080Z,49.34
2023-05-23T09:15:22.587Z,49.86
2023-05-23T09:17:50.491Z,49.65
2023-05-23T09:20:19.381Z,49.80
2023-05-23T09:22:48.358Z,49.72
2023-05-23T09:25:16.721Z,50.00
2023-05-23T09:27:47.790Z,50.23
2023-05-23T09:30:19.793Z,50.97
2023-05-23T09:33:03.943Z,50.50
2023-05-23T09:35:33.572Z,50.68
2023-05-23T09:38:01.732Z,50.02
2023-05-23T09:40:33.994Z,50.08
2023-05-23T09:43:04.277Z,50.35
2023-05-23T09:45:34.976Z,49.95
2023-05-23T09:48:02.891Z,49.79
2023-05-23T09:50:34.177Z,50.51
2023-05-23T09:53:02.680Z,50.77
2023-05-23T09:55:30.468Z,50.64
2023-05-23T09:58:00.803Z,50.42
2023-05-23T10:00:29.969Z,50.01
2023-05-23T10:03:10.797Z,50.32
2023-05-23T10:05:42.857Z,50.32
2023-05-23T10:08:15.234Z,51.01
2023-05-23T10:11:34.887Z,51.02
2023-05-23T10:14:04.676Z,51.36
2023-05-23T10:16:40.551Z,52.03
2023-05-23T10:19:18.650Z,52.17
2023-05-23T10:21:51.714Z,52.61
2023-05-23T10:24:20.690Z,52.13
2023-05-23T10:26:49.861Z,51.89
2023-05-23T10:29:17.969Z,52.13
2023-05-23T10:31:46.479Z,51.70
2023-05-23T10:34:25.278Z,51.71
2023-05-23T10:37:00.264Z,51.46
2023-05-23T10:39:50.677Z,51.27
2023-05-23T10:42:25.073Z,51.75
2023-05-23T10:44:52.921Z,51.39
2023-05-23T10:47:31.107Z,50.93
2023-05-23T10:50:02.501Z,51.32
2023-05-23T10:52:40.997Z,50.59
2023-05-23T10:55:14.872Z,50.60
2023-05-23T10:57:43.910Z,50.39
2023-05-23T11:00:16.644Z,49.79
2023-05-23T11:02:56.435Z,50.36
2023-05-23T11:05:28.565Z,48.71
2023-05-23T11:08:10.377Z,48.41
2023-05-23T11:10:57.622Z,48.68
2023-05-23T11:13:25.513Z,48.90
2023-05-23T11:15:53.554Z,47.71
2023-05-23T11:18:23.319Z,47.89
2023-05-23T11:20:54.679Z,47.23
2023-05-23T11:23:23.935Z,48.30
2023-05-23T11:25:53.941Z,47.80
2023-05-23T11:28:22.051Z,46.29
2023-05-23T11:30:51.066Z,46.93
2023-05-23T11:33:20.810Z,46.09
2023-05-23T11:35:51.634Z,46.33
2023-05-23T11:38:21.177Z,47.70
2023-05-23T11:40:49.391Z,47.82
2023-05-23T11:43:19.514Z,47.64
2023-05-23T11:45:47.756Z,48.10
2023-05-23T11:48:17.004Z,47.14
2023-05-23T11:50:47.165Z,47.07
2023-05-23T11:53:17.512Z,45.40
2023-05-23T11:55:53.446Z,46.69
2023-05-23T11:58:22.836Z,46.69
2023-05-23T12:00:51.742Z,46.46
2023-05-23T12:03:22.143Z,46.29
2023-05-23T12:05:50.250Z,46.55
2023-05-23T12:08:18.036Z,46.52
2023-05-23T12:10:55.362Z,46.41
2023-05-23T12:13:26.209Z,46.35
2023-05-23T12:15:58.859Z,46.32
2023-05-23T12:18:29.695Z,45.19
2023-05-23T12:21:01.348Z,45.38
2023-05-23T12:23:31.824Z,45.79
2023-05-23T12:26:07.454Z,45.14
2023-05-23T12:28:37.239Z,45.42
2023-05-23T12:31:12.750Z,44.59
2023-05-23T12:33:41.318Z,44.47
2023-05-23T12:36:09.187Z,44.49
2023-05-23T12:38:40.820Z,43.59
2023-05-23T12:41:16.740Z,43.31
2023-05-23T12:43:51.564Z,43.72
2023-05-23T12:46:19.372Z,43.69
2023-05-23T12:48:47.380Z,43.04
2023-05-23T12:51:15.466Z,43.50
2023-05-23T12:53:43.294Z,43.04
2023-05-23T12:56:11.144Z,42.97
2023-05-23T12:58:40.397Z,42.11
2023-05-23T13:01:08.201Z,42.60
2023-05-23T13:03:36.625Z,41.94
2023-05-23T13:06:04.897Z,42.58
2023-05-23T13:08:32.857Z,42.44
2023-05-23T13:11:00.759Z,42.54
2023-05-23T13:13:29.016Z,43.12
2023-05-23T13:15:58.604Z,42.15
2023-05-23T13:18:26.818Z,42.08
2023-05-23T13:20:54.864Z,41.66
2023-05-23T13:23:22.753Z,42.41
2023-05-23T13:25:51.273Z,42.42
2023-05-23T13:28:19.297Z,42.15
2023-05-23T13:30:47.595Z,41.89
2023-05-23T13:33:17.171Z,41.62
2023-05-23T13:35:45.471Z,42.80
2023-05-23T13:38:13.255Z,41.35
2023-05-23T13:40:41.384Z,41.36
2023-05-23T13:43:09.805Z,40.50
2023-05-23T13:45:37.643Z,41.05
2023-05-23T13:48:05.856Z,41.23
2023-05-23T13:50:35.629Z,41.75
2023-05-23T13:53:03.826Z,41.62
2023-05-23T13:55:31.632Z,41.53
2023-05-23T13:57:59.472Z,41.40
2023-05-23T14:00:27.268Z,41.43
2023-05-23T14:02:55.308Z,41.71
2023-05-23T14:05:23.849Z,41.87
2023-05-23T14:07:53.240Z,41.84
2023-05-23T14:10:21.127Z,42.20
2023-05-23T14:12:49.288Z,42.80
2023-05-23T14:15:17.672Z,42.16
2023-05-23T14:17:45.469Z,42.30
2023-05-23T14:20:13.949Z,42.15
2023-05-23T14:22:42.069Z,42.58
2023-05-23T14:25:11.550Z,41.35
2023-05-23T14:27:40.433Z,41.15
2023-05-23T14:30:09.565Z,41.22
2023-05-23T14:32:39.145Z,41.68
2023-05-23T14:35:08.294Z,40.80
2023-05-23T14:37:36.656Z,41.54
2023-05-23T14:40:04.703Z,41.41
2023-05-23T14:42:34.325Z,41.17
2023-05-23T14:45:01.897Z,42.06
2023-05-23T14:47:29.804Z,41.21
2023-05-23T14:49:57.794Z,42.01
2023-05-23T14:52:25.685Z,41.97
2023-05-23T14:54:53.481Z,41.51
2023-05-23T14:57:21.309Z,41.75
2023-05-23T14:59:50.479Z,41.52
2023-05-23T15:02:18.275Z,41.23
2023-05-23T15:04:46.674Z,41.36
2023-05-23T15:07:14.847Z,41.66
2023-05-23T15:09:42.578Z,41.99
2023-05-23T15:12:10.754Z,41.84
2023-05-23T15:14:38.484Z,41.53
2023-05-23T15:17:08.686Z,41.06
2023-05-23T15:19:37.156Z,41.26
2023-05-23T15:22:05.539Z,40.80
2023-05-23T15:24:34.975Z,40.92
2023-05-23T15:27:19.011Z,40.74
2023-05-23T15:29:48.239Z,40.80
2023-05-23T15:32:17.543Z,40.64
2023-05-23T15:34:45.285Z,40.84
2023-05-23T15:37:13.009Z,40.52
2023-05-23T15:39:40.872Z,40.68
2023-05-23T15:42:09.028Z,40.71
2023-05-23T15:44:36.828Z,40.77
2023-05-23T15:47:05.217Z,40.60
2023-05-23T15:49:34.301Z,40.84
2023-05-23T15:52:02.058Z,41.14
2023-05-23T15:54:29.947Z,40.52
2023-05-23T15:56:57.699Z,41.14
2023-05-23T15:59:25.445Z,41.06
2023-05-23T16:01:53.370Z,40.88
2023-05-23T16:04:21.162Z,41.05
2023-05-23T16:06:50.315Z,41.16
2023-05-23T16:09:18.295Z,40.91
2023-05-23T16:11:46.040Z,40.54
2023-05-23T16:14:13.798Z,40.35
2023-05-23T16:16:41.954Z,40.88
2023-05-23T16:19:09.901Z,40.61
2023-05-23T16:21:37.657Z,40.71
2023-05-23T16:24:07.520Z,41.22
2023-05-23T16:26:35.371Z,41.14
2023-05-23T16:29:03.130Z,41.17
2023-05-23T16:31:31.415Z,40.90
2023-05-23T16:33:59.637Z,41.04
2023-05-23T16:36:27.368Z,41.20
2023-05-23T16:38:55.862Z,41.35
2023-05-23T16:41:25.205Z,41.31
2023-05-23T16:43:53.081Z,40.82
2023-05-23T16:46:22.484Z,41.41
2023-05-23T16:48:50.402Z,41.22
2023-05-23T16:51:18.408Z,41.25
2023-05-23T16:53:46.436Z,41.18
2023-05-23T16:56:14.168Z,41.26
2023-05-23T16:58:43.301Z,40.82
2023-05-23T17:01:11.195Z,41.26
2023-05-23T17:03:41.239Z,41.12
2023-05-23T17:06:09.167Z,41.48
2023-05-23T17:08:37.059Z,41.49
2023-05-23T17:11:04.902Z,41.38
2023-05-23T17:13:33.062Z,41.46
2023-05-23T17:16:02.434Z,41.57
2023-05-23T17:18:30.296Z,41.69
2023-05-23T17:20:58.257Z,41.70
2023-05-23T17:23:26.383Z,41.87
2023-05-23T17:25:55.099Z,41.94
2023-05-23T17:28:23.437Z,41.89
2023-05-23T17:30:53.325Z,41.94
2023-05-23T17:33:22.496Z,42.18
2023-05-23T17:35:50.232Z,42.48
2023-05-23T17:38:18.148Z,42.26
2023-05-23T17:40:46.146Z,42.47
2023-05-23T17:43:14.081Z,42.44
2023-05-23T17:45:41.983Z,42.30
2023-05-23T17:48:09.781Z,42.69
2023-05-23T17:50:39.140Z,42.46
2023-05-23T17:53:06.901Z,42.42
2023-05-23T17:55:34.634Z,42.45
2023-05-23T17:58:02.411Z,42.54
2023-05-23T18:00:30.500Z,42.63
2023-05-23T18:02:58.287Z,42.79
2023-05-23T18:05:26.422Z,42.75
2023-05-23T18:07:55.541Z,42.85
2023-05-23T18:10:24.412Z,42.91
2023-05-23T18:12:52.431Z,42.94
2023-05-23T18:15:20.472Z,43.00
2023-05-23T18:17:48.442Z,43.29
2023-05-23T18:20:16.665Z,43.22
2023-05-23T18:22:44.470Z,43.45
2023-05-23T18:25:19.651Z,43.63
2023-05-23T18:27:47.409Z,44.08
2023-05-23T18:30:15.489Z,43.65
2023-05-23T18:32:43.806Z,43.71
2023-05-23T18:35:11.688Z,43.95
2023-05-23T18:37:39.920Z,43.92
2023-05-23T18:40:09.942Z,44.06
2023-05-23T18:42:39.097Z,43.81
2023-05-23T18:45:08.161Z,43.86
2023-05-23T18:47:36.657Z,44.18
2023-05-23T18:50:05.177Z,44.01
2023-05-23T18:52:37.254Z,44.16
2023-05-23T18:55:05.727Z,44.43
2023-05-23T18:57:33.585Z,44.23
2023-05-23T19:00:03.673Z,44.88
2023-05-23T19:02:31.624Z,44.90
2023-05-23T19:04:59.505Z,44.88
2023-05-23T19:07:27.575Z,44.80
2023-05-23T19:09:55.594Z,44.90
2023-05-23T19:12:23.713Z,44.79
2023-05-23T19:14:52.314Z,44.95
2023-05-23T19:17:21.571Z,45.06
2023-05-23T19:19:49.499Z,45.06
2023-05-23T19:22:17.741Z,44.95
2023-05-23T19:24:45.558Z,45.41
2023-05-23T19:27:14.851Z,45.22
2023-05-23T19:29:43.626Z,45.13
2023-05-23T19:32:11.504Z,45.31
2023-05-23T19:34:40.939Z,45.64
2023-05-23T19:37:11.738Z,45.64
2023-05-23T19:39:42.757Z,45.63
2023-05-23T19:42:10.612Z,45.98
2023-05-23T19:44:38.670Z,45.67
2023-05-23T19:47:07.728Z,45.91
2023-05-23T19:49:35.886Z,46.23
2023-05-23T19:52:05.524Z,46.21
2023-05-23T19:54:33.177Z,45.87
2023-05-23T19:57:01.165Z,45.97
2023-05-23T19:59:29.399Z,46.40
2023-05-23T20:01:57.303Z,46.47
2023-05-23T20:04:25.312Z,46.45
2023-05-23T20:06:54.002Z,46.53
2023-05-23T20:09:23.688Z,46.50
2023-05-23T20:11:51.368Z,46.56
2023-05-23T20:14:19.612Z,46.70
2023-05-23T20:16:48.345Z,46.55
2023-05-23T20:19:16.292Z,46.88
2023-05-23T20:21:44.505Z,47.27
2023-05-23T20:24:14.849Z,47.23
2023-05-23T20:26:44.343Z,46.87
2023-05-23T20:29:12.200Z,46.76
2023-05-23T20:31:40.147Z,46.80
2023-05-23T20:34:08.303Z,46.78
2023-05-23T20:36:37.098Z,46.86
2023-05-23T20:39:06.277Z,46.88
2023-05-23T20:41:34.413Z,46.69
2023-05-23T20:44:03.595Z,47.19
2023-05-23T20:46:32.157Z,47.44
2023-05-23T20:49:01.540Z,47.58
2023-05-23T20:51:29.580Z,47.69
2023-05-23T20:53:57.653Z,47.20
2023-05-23T20:56:27.243Z,47.77
2023-05-23T20:58:54.889Z,48.23
2023-05-23T21:01:24.956Z,48.50
2023-05-23T21:03:53.482Z,48.62
2023-05-23T21:06:21.348Z,48.55
2023-05-23T21:08:49.444Z,48.50
2023-05-23T21:11:17.560Z,48.13
2023-05-23T21:13:45.648Z,48.92
2023-05-23T21:16:14.641Z,48.35
2023-05-23T21:18:44.239Z,48.48
2023-05-23T21:21:12.084Z,48.27
2023-05-23T21:23:40.046Z,48.20
2023-05-23T21:26:08.261Z,48.58
2023-05-23T21:28:36.183Z,49.11
2023-05-23T21:31:04.783Z,48.91
2023-05-23T21:33:33.426Z,49.30
2023-05-23T21:36:02.926Z,49.35
2023-05-23T21:38:31.303Z,48.81
2023-05-23T21:40:59.517Z,48.83
2023-05-23T21:43:27.611Z,49.32
2023-05-23T21:45:55.701Z,49.31
2023-05-23T21:48:23.519Z,49.53
2023-05-23T21:50:51.491Z,49.37
2023-05-23T21:53:21.242Z,49.22
2023-05-23T21:55:49.155Z,49.46
2023-05-23T21:58:17.062Z,49.39
2023-05-23T22:00:46.008Z,49.33
2023-05-23T22:03:14.105Z,49.59
2023-05-23T22:05:42.022Z,49.34
2023-05-23T22:08:10.218Z,49.17
2023-05-23T22:10:40.544Z,49.64
2023-05-23T22:13:09.548Z,49.75
2023-05-23T22:15:38.025Z,49.36
2023-05-23T22:18:06.528Z,49.63
2023-05-23T22:20:38.707Z,50.25
2023-05-23T22:23:07.444Z,49.74
2023-05-23T22:25:35.323Z,49.62
2023-05-23T22:28:05.154Z,49.33
2023-05-23T22:30:32.958Z,49.63
2023-05-23T22:33:01.856Z,50.24
2023-05-23T22:35:30.254Z,50.08
2023-05-23T22:37:58.061Z,50.36
2023-05-23T22:40:25.904Z,50.50
2023-05-23T22:42:54.201Z,50.32
2023-05-23T22:45:23.523Z,50.62
2023-05-23T22:47:54.413Z,50.78
2023-05-23T22:50:22.916Z,50.67
2023-05-23T22:52:50.791Z,50.85
2023-05-23T22:55:19.174Z,50.65
2023-05-23T22:57:47.099Z,50.75
2023-05-23T23:00:15.406Z,50.38
2023-05-23T23:02:45.946Z,50.71
2023-05-23T23:05:14.715Z,50.82
2023-05-23T23:07:42.943Z,50.92
2023-05-23T23:10:11.502Z,50.90
2023-05-23T23:12:39.400Z,51.09
2023-05-23T23:15:08.852Z,51.11
2023-05-23T23:17:37.383Z,50.85
2023-05-23T23:20:08.915Z,51.45
2023-05-23T23:22:37.450Z,51.02
2023-05-23T23:25:05.995Z,51.58
2023-05-23T23:27:33.911Z,51.58
2023-05-23T23:30:02.189Z,51.71
2023-05-23T23:32:30.883Z,51.56
2023-05-23T23:34:59.528Z,51.06
2023-05-23T23:37:29.021Z,51.89
2023-05-23T23:39:56.978Z,51.54
2023-05-23T23:42:24.813Z,51.65
2023-05-23T23:44:53.047Z,51.80
2023-05-23T23:47:20.983Z,51.87
2023-05-23T23:49:48.833Z,52.03
2023-05-23T23:52:17.943Z,52.05
2023-05-23T23:54:47.198Z,51.89
2023-05-23T23:57:15.186Z,51.97
2023-05-23T23:59:43.840Z,52.68
